Arapaho — WCX9424 — position and weather

sailwx.info

Track history (hours):
 
Tides and Currents Weather Stations Pressure Air Temp Water Temp Dewpoint Dewpoint Depression Visibility Wind Speed Wind Dir Waves Ship Positions

Arapaho

Owner: SAUSE BROTHERS OCEAN TOWING CO INC, LONG BEACH, CA. More information available from US FCC via Universal Licensing System and Coast Guard Vessel Documentation Center.

Last reported at 2014-Nov-24 21:34 UTC. Time now 2014-Nov-24 21:45 UTC.
Position N 33°44' W 118°08'.

Length 37 m; draft 1.5 m.

Type: Towing. MMSI: 367004270.

Date/timePositionNaut miles runAvg speedWind from/ knotsBaromVisibWave heightAir tempDewpointWater temp
2014-Nov-24 21:34N 33°44' W 118°08'3 3.3
2014-Nov-24 20:34N 33°44' W 118°12'0 0.3
2014-Nov-24 19:33N 33°45' W 118°12'2 2.0
2014-Nov-24 18:30N 33°45' W 118°10'0 0.0
2014-Nov-24 17:33N 33°45' W 118°10'1 1.0
2014-Nov-24 16:27N 33°44' W 118°08'1 0.9
2014-Nov-24 15:33N 33°45' W 118°09'3 2.5
2014-Nov-24 14:33N 33°45' W 118°12'0 0.0
2014-Nov-24 13:33N 33°45' W 118°12'1 1.4
2014-Nov-24 12:33N 33°45' W 118°11'2 1.5
2014-Nov-24 11:19N 33°44' W 118°08'3 4.3
2014-Nov-24 10:33N 33°45' W 118°12'0 0.0
2014-Nov-24 09:33N 33°45' W 118°12'0 0.0
2014-Nov-24 08:33N 33°45' W 118°12'1 1.3
2014-Nov-24 07:32N 33°44' W 118°11'0 0.5
2014-Nov-24 06:32N 33°44' W 118°10'2 1.8
2014-Nov-24 05:30N 33°45' W 118°12'2 1.9
2014-Nov-24 04:22N 33°45' W 118°10'1 1.5
2014-Nov-24 03:30N 33°46' W 118°11'2 2.0
2014-Nov-24 02:33N 33°44' W 118°12'0 0.5
2014-Nov-24 01:34N 33°45' W 118°12'0 0.4
2014-Nov-24 00:33N 33°44' W 118°12'3 3.3
2014-Nov-23 23:33N 33°44' W 118°08'2 1.9
2014-Nov-23 22:33N 33°44' W 118°11'1 1.4
2014-Nov-23 21:33N 33°45' W 118°12'0 0.0
2014-Nov-23 20:33N 33°45' W 118°12'0 0.0
2014-Nov-23 19:33N 33°45' W 118°12'0 0.0
2014-Nov-23 18:33N 33°45' W 118°12'3 3.3
2014-Nov-23 17:34N 33°44' W 118°08'0 0.1
2014-Nov-23 16:33N 33°45' W 118°09'2 1.9
2014-Nov-23 15:26N 33°46' W 118°11'2 1.9
2014-Nov-23 14:33N 33°44' W 118°12'0 0.3
2014-Nov-23 13:33N 33°45' W 118°12'0 0.0
2014-Nov-23 12:25N 33°45' W 118°12'2 1.7
2014-Nov-23 11:21N 33°44' W 118°10'2 2.2
2014-Nov-23 10:34N 33°45' W 118°12'0 0.1
2014-Nov-23 09:33N 33°45' W 118°12'0 0.0
2014-Nov-23 08:33N 33°45' W 118°12'0 0.0
2014-Nov-23 07:34N 33°45' W 118°12'0 0.0
2014-Nov-23 06:33N 33°45' W 118°12'0 0.0
2014-Nov-23 05:34N 33°45' W 118°12'0 0.4
2014-Nov-23 04:34N 33°44' W 118°12'2 2.4
2014-Nov-23 03:33N 33°45' W 118°10'2 2.4
2014-Nov-23 02:33N 33°44' W 118°12'1 0.5
2014-Nov-23 01:33N 33°45' W 118°12'0 0.0
2014-Nov-23 00:33N 33°45' W 118°12'0 0.0
2014-Nov-22 23:33N 33°45' W 118°12'0 0.0
2014-Nov-22 22:33N 33°45' W 118°12'0 0.0
2014-Nov-22 21:33N 33°45' W 118°12'0 0.0
2014-Nov-22 20:34N 33°45' W 118°12'0 0.0
2014-Nov-22 19:34N 33°45' W 118°12'0 0.0
2014-Nov-22 18:34N 33°45' W 118°12'2 2.2
2014-Nov-22 17:34N 33°45' W 118°10'0 0.0
2014-Nov-22 15:29N 33°45' W 118°10'2 2.4
2014-Nov-22 14:34N 33°45' W 118°12'0 0.0
2014-Nov-22 13:25N 33°45' W 118°12'0 0.0
2014-Nov-22 12:30N 33°45' W 118°12'3 2.6
2014-Nov-22 11:16N 33°44' W 118°08'3 3.1
2014-Nov-22 10:14N 33°44' W 118°12'0 0.3
2014-Nov-22 09:17N 33°45' W 118°12'0 0.0
2014-Nov-22 07:11N 33°45' W 118°12'0 0.0
2014-Nov-22 06:33N 33°45' W 118°12'0 0.0
2014-Nov-22 05:31N 33°45' W 118°12'2 1.6
2014-Nov-22 04:32N 33°46' W 118°11'2 1.7
2014-Nov-22 03:10N 33°44' W 118°08'3 5.4
2014-Nov-22 02:34N 33°45' W 118°12'0 0.0
2014-Nov-22 01:33N 33°45' W 118°12'3 3.2
2014-Nov-22 00:33N 33°44' W 118°08'0 0.0
2014-Nov-21 23:33N 33°44' W 118°08'3 3.3
2014-Nov-21 22:33N 33°44' W 118°12'2 2.2
2014-Nov-21 21:32N 33°45' W 118°10'0 0.1
2014-Nov-21 20:33N 33°45' W 118°10'1 0.6
2014-Nov-21 19:33N 33°45' W 118°10'2 2.3
2014-Nov-21 18:33N 33°45' W 118°12'3 3.3
2014-Nov-21 17:33N 33°44' W 118°08'0 0.2
2014-Nov-21 16:30N 33°45' W 118°09'0 0.1
2014-Nov-21 15:33N 33°45' W 118°09'3 3.2
2014-Nov-21 14:34N 33°44' W 118°12'0 0.4
2014-Nov-21 13:33N 33°45' W 118°12'0 0.0
2014-Nov-21 12:33N 33°45' W 118°12'2 2.2
2014-Nov-21 11:34N 33°45' W 118°10'2 1.8
2014-Nov-21 10:33N 33°44' W 118°12'1 0.9
2014-Nov-21 09:33N 33°45' W 118°12'1 1.4
2014-Nov-21 08:33N 33°45' W 118°11'1 1.4
2014-Nov-21 07:31N 33°44' W 118°12'3 3.4
2014-Nov-21 06:33N 33°44' W 118°08'0 0.0
2014-Nov-21 05:26N 33°44' W 118°08'1 1.4
2014-Nov-21 04:29N 33°45' W 118°10'1 1.1
2014-Nov-21 03:34N 33°46' W 118°11'2 1.5
2014-Nov-21 02:33N 33°45' W 118°12'0 0.0
2014-Nov-21 01:22N 33°45' W 118°12'0 0.0
2014-Nov-20 22:15N 33°45' W 118°12'0 0.0
2014-Nov-20 21:33N 33°45' W 118°12'0 0.0
2014-Nov-20 20:30N 33°45' W 118°12'3 3.4
2014-Nov-20 19:33N 33°44' W 118°08'3 3.2
2014-Nov-20 18:34N 33°44' W 118°12'1 0.6
2014-Nov-20 17:33N 33°45' W 118°12'2 1.9
2014-Nov-20 16:23N 33°45' W 118°10'1 0.7
2014-Nov-20 15:33N 33°45' W 118°10'2 2.1
2014-Nov-20 14:30N 33°44' W 118°12'0 0.3
2014-Nov-20 13:10N 33°45' W 118°12'0 0.0
2014-Nov-20 12:33N 33°45' W 118°12'2 2.3
2014-Nov-20 11:33N 33°45' W 118°10'2 2.4
2014-Nov-20 10:34N 33°44' W 118°12'0 0.2
2014-Nov-20 09:24N 33°45' W 118°12'2 1.7
2014-Nov-20 08:05N 33°45' W 118°10'1 1.1
2014-Nov-20 07:33N 33°45' W 118°10'2 2.2
2014-Nov-20 06:33N 33°45' W 118°12'2 1.5
2014-Nov-20 05:30N 33°46' W 118°11'1 1.1
2014-Nov-20 04:33N 33°45' W 118°10'1 1.0
2014-Nov-20 03:11N 33°44' W 118°08'3 5.2
2014-Nov-20 02:33N 33°45' W 118°12'0 0.0
2014-Nov-20 01:33N 33°45' W 118°12'0 0.0
2014-Nov-20 00:33N 33°45' W 118°12'1 1.3
2014-Nov-19 23:33N 33°45' W 118°11'1 0.9
2014-Nov-19 22:33N 33°45' W 118°10'2 2.2
2014-Nov-19 21:33N 33°45' W 118°12'0 0.0
2014-Nov-19 20:33N 33°45' W 118°12'2 2.3
2014-Nov-19 19:34N 33°45' W 118°10'2 2.2
2014-Nov-19 18:34N 33°44' W 118°12'1 1.3
2014-Nov-19 17:33N 33°44' W 118°10'1 0.9
2014-Nov-19 16:29N 33°45' W 118°10'2 1.1
2014-Nov-19 14:34N 33°45' W 118°12'0 0.0
2014-Nov-19 13:15N 33°45' W 118°12'2 2.0
2014-Nov-19 12:09N 33°45' W 118°10'0 0.0
2014-Nov-19 11:17N 33°45' W 118°10'0 0.0
2014-Nov-19 10:19N 33°45' W 118°10'1 1.4
2014-Nov-19 09:33N 33°44' W 118°08'1 1.1
2014-Nov-19 08:34N 33°45' W 118°10'0 0.1
2014-Nov-19 07:34N 33°45' W 118°10'0 0.0
2014-Nov-19 06:33N 33°45' W 118°10'1 0.6
2014-Nov-19 05:34N 33°45' W 118°10'2 2.3
2014-Nov-19 04:34N 33°45' W 118°12'0 0.0
2014-Nov-19 03:33N 33°45' W 118°12'2 2.2
2014-Nov-19 02:34N 33°45' W 118°10'1 0.6
2014-Nov-19 01:34N 33°45' W 118°10'1 1.4
2014-Nov-19 00:33N 33°44' W 118°11'1 1.0
2014-Nov-18 23:33N 33°45' W 118°10'1 0.9
2014-Nov-18 22:33N 33°45' W 118°09'1 1.3
2014-Nov-18 21:33N 33°45' W 118°10'2 1.5
2014-Nov-18 20:34N 33°45' W 118°12'0 0.0
2014-Nov-18 19:33N 33°45' W 118°12'3 3.2
2014-Nov-18 18:34N 33°44' W 118°08'2 2.3
2014-Nov-18 17:33N 33°46' W 118°11'1 1.2
2014-Nov-18 16:33N 33°45' W 118°10'2 2.0
2014-Nov-18 15:33N 33°45' W 118°12'0 0.0
2014-Nov-18 14:33N 33°45' W 118°12'0 0.0
2014-Nov-18 13:34N 33°45' W 118°12'0 0.5
2014-Nov-18 12:33N 33°44' W 118°12'2 2.2
2014-Nov-18 11:33N 33°45' W 118°10'0 0.0
2014-Nov-18 10:33N 33°45' W 118°10'1 1.1
2014-Nov-18 09:34N 33°44' W 118°08'1 1.0
2014-Nov-18 08:32N 33°45' W 118°10'0 0.0
2014-Nov-18 07:31N 33°45' W 118°10'1 0.6
2014-Nov-18 06:34N 33°45' W 118°10'0 0.3
2014-Nov-18 05:33N 33°45' W 118°10'2 2.0
2014-Nov-18 04:33N 33°44' W 118°12'1 0.8
2014-Nov-18 03:34N 33°45' W 118°12'0 0.0
2014-Nov-18 02:33N 33°45' W 118°12'2 1.1
2014-Nov-18 00:33N 33°45' W 118°10'2 2.2
2014-Nov-17 23:33N 33°45' W 118°12'0 0.0
2014-Nov-17 22:28N 33°45' W 118°12'0 0.0
2014-Nov-17 21:33N 33°45' W 118°12'2 1.8
2014-Nov-17 20:20N 33°45' W 118°10'2 1.1
2014-Nov-17 18:17N 33°45' W 118°12'0 0.1
2014-Nov-17 15:17N 33°45' W 118°12'0 0.0
2014-Nov-16 18:26N 33°45' W 118°12'0 0.0
2014-Nov-16 17:27N 33°45' W 118°12'0 0.0
2014-Nov-16 16:20N 33°45' W 118°12'0 0.0
2014-Nov-16 12:07N 33°45' W 118°12'0 0.0
2014-Nov-16 11:18N 33°45' W 118°12'2 2.1
2014-Nov-16 10:33N 33°44' W 118°10'2 1.5
2014-Nov-16 09:33N 33°45' W 118°12'0 0.0
2014-Nov-16 08:34N 33°45' W 118°12'0 0.0
2014-Nov-16 07:33N 33°45' W 118°12'0 0.0
2014-Nov-16 06:33N 33°45' W 118°12'0 0.0
2014-Nov-16 05:33N 33°45' W 118°12'0 0.0
2014-Nov-16 02:22N 33°45' W 118°12'0 0.0
2014-Nov-16 01:33N 33°45' W 118°12'0 0.0
2014-Nov-16 00:33N 33°45' W 118°12'0 0.0
2014-Nov-15 23:33N 33°45' W 118°12'0 0.0
2014-Nov-15 19:34N 33°45' W 118°12'2 1.6
2014-Nov-15 18:32N 33°46' W 118°11'1 1.0
2014-Nov-15 17:33N 33°45' W 118°10'1 0.9
2014-Nov-15 16:33N 33°45' W 118°10'1 1.1
2014-Nov-15 15:11N 33°45' W 118°12'0 0.0
2014-Nov-15 14:08N 33°45' W 118°12'2 0.8
2014-Nov-15 11:23N 33°45' W 118°10'1 1.2
2014-Nov-15 10:31N 33°45' W 118°08'0 0.2
2014-Nov-15 09:34N 33°44' W 118°08'1 1.1
2014-Nov-15 08:33N 33°45' W 118°10'0 0.5
2014-Nov-15 07:33N 33°45' W 118°10'0 0.0
2014-Nov-15 06:33N 33°45' W 118°10'1 0.6
2014-Nov-15 05:34N 33°45' W 118°10'0 0.2
2014-Nov-15 04:33N 33°45' W 118°10'2 1.0
2014-Nov-15 02:31N 33°45' W 118°12'0 0.0
2014-Nov-15 01:33N 33°45' W 118°12'0 0.0
2014-Nov-15 00:34N 33°45' W 118°12'1 0.7
2014-Nov-14 23:33N 33°44' W 118°12'3 3.0
2014-Nov-14 22:33N 33°44' W 118°08'  
Track history (hours):
 
Tides and Currents Weather Stations Pressure Air Temp Water Temp Dewpoint Dewpoint Depression Visibility Wind Speed Wind Dir Waves Ship Positions

Arapaho

Owner: SAUSE BROTHERS OCEAN TOWING CO INC, LONG BEACH, CA. More information available from US FCC via Universal Licensing System and Coast Guard Vessel Documentation Center.

Last reported at 2014-Nov-24 21:34 UTC. Time now 2014-Nov-24 21:45 UTC.
Position N 33°44' W 118°08'.

Length 37 m; draft 1.5 m.

Type: Towing. MMSI: 367004270.

Date/timePositionNaut miles runAvg speedWind from/ knotsBaromVisibWave heightAir tempDewpointWater temp
2014-Nov-24 21:34N 33°44' W 118°08'3 3.3
2014-Nov-24 20:34N 33°44' W 118°12'0 0.3
2014-Nov-24 19:33N 33°45' W 118°12'2 2.0
2014-Nov-24 18:30N 33°45' W 118°10'0 0.0
2014-Nov-24 17:33N 33°45' W 118°10'1 1.0
2014-Nov-24 16:27N 33°44' W 118°08'1 0.9
2014-Nov-24 15:33N 33°45' W 118°09'3 2.5
2014-Nov-24 14:33N 33°45' W 118°12'0 0.0
2014-Nov-24 13:33N 33°45' W 118°12'1 1.4
2014-Nov-24 12:33N 33°45' W 118°11'2 1.5
2014-Nov-24 11:19N 33°44' W 118°08'3 4.3
2014-Nov-24 10:33N 33°45' W 118°12'0 0.0
2014-Nov-24 09:33N 33°45' W 118°12'0 0.0
2014-Nov-24 08:33N 33°45' W 118°12'1 1.3
2014-Nov-24 07:32N 33°44' W 118°11'0 0.5
2014-Nov-24 06:32N 33°44' W 118°10'2 1.8
2014-Nov-24 05:30N 33°45' W 118°12'2 1.9
2014-Nov-24 04:22N 33°45' W 118°10'1 1.5
2014-Nov-24 03:30N 33°46' W 118°11'2 2.0
2014-Nov-24 02:33N 33°44' W 118°12'0 0.5
2014-Nov-24 01:34N 33°45' W 118°12'0 0.4
2014-Nov-24 00:33N 33°44' W 118°12'3 3.3
2014-Nov-23 23:33N 33°44' W 118°08'2 1.9
2014-Nov-23 22:33N 33°44' W 118°11'1 1.4
2014-Nov-23 21:33N 33°45' W 118°12'0 0.0
2014-Nov-23 20:33N 33°45' W 118°12'0 0.0
2014-Nov-23 19:33N 33°45' W 118°12'0 0.0
2014-Nov-23 18:33N 33°45' W 118°12'3 3.3
2014-Nov-23 17:34N 33°44' W 118°08'0 0.1
2014-Nov-23 16:33N 33°45' W 118°09'2 1.9
2014-Nov-23 15:26N 33°46' W 118°11'2 1.9
2014-Nov-23 14:33N 33°44' W 118°12'0 0.3
2014-Nov-23 13:33N 33°45' W 118°12'0 0.0
2014-Nov-23 12:25N 33°45' W 118°12'2 1.7
2014-Nov-23 11:21N 33°44' W 118°10'2 2.2
2014-Nov-23 10:34N 33°45' W 118°12'0 0.1
2014-Nov-23 09:33N 33°45' W 118°12'0 0.0
2014-Nov-23 08:33N 33°45' W 118°12'0 0.0
2014-Nov-23 07:34N 33°45' W 118°12'0 0.0
2014-Nov-23 06:33N 33°45' W 118°12'0 0.0
2014-Nov-23 05:34N 33°45' W 118°12'0 0.4
2014-Nov-23 04:34N 33°44' W 118°12'2 2.4
2014-Nov-23 03:33N 33°45' W 118°10'2 2.4
2014-Nov-23 02:33N 33°44' W 118°12'1 0.5
2014-Nov-23 01:33N 33°45' W 118°12'0 0.0
2014-Nov-23 00:33N 33°45' W 118°12'0 0.0
2014-Nov-22 23:33N 33°45' W 118°12'0 0.0
2014-Nov-22 22:33N 33°45' W 118°12'0 0.0
2014-Nov-22 21:33N 33°45' W 118°12'0 0.0
2014-Nov-22 20:34N 33°45' W 118°12'0 0.0
2014-Nov-22 19:34N 33°45' W 118°12'0 0.0
2014-Nov-22 18:34N 33°45' W 118°12'2 2.2
2014-Nov-22 17:34N 33°45' W 118°10'0 0.0
2014-Nov-22 15:29N 33°45' W 118°10'2 2.4
2014-Nov-22 14:34N 33°45' W 118°12'0 0.0
2014-Nov-22 13:25N 33°45' W 118°12'0 0.0
2014-Nov-22 12:30N 33°45' W 118°12'3 2.6
2014-Nov-22 11:16N 33°44' W 118°08'3 3.1
2014-Nov-22 10:14N 33°44' W 118°12'0 0.3
2014-Nov-22 09:17N 33°45' W 118°12'0 0.0
2014-Nov-22 07:11N 33°45' W 118°12'0 0.0
2014-Nov-22 06:33N 33°45' W 118°12'0 0.0
2014-Nov-22 05:31N 33°45' W 118°12'2 1.6
2014-Nov-22 04:32N 33°46' W 118°11'2 1.7
2014-Nov-22 03:10N 33°44' W 118°08'3 5.4
2014-Nov-22 02:34N 33°45' W 118°12'0 0.0
2014-Nov-22 01:33N 33°45' W 118°12'3 3.2
2014-Nov-22 00:33N 33°44' W 118°08'0 0.0
2014-Nov-21 23:33N 33°44' W 118°08'3 3.3
2014-Nov-21 22:33N 33°44' W 118°12'2 2.2
2014-Nov-21 21:32N 33°45' W 118°10'0 0.1
2014-Nov-21 20:33N 33°45' W 118°10'1 0.6
2014-Nov-21 19:33N 33°45' W 118°10'2 2.3
2014-Nov-21 18:33N 33°45' W 118°12'3 3.3
2014-Nov-21 17:33N 33°44' W 118°08'0 0.2
2014-Nov-21 16:30N 33°45' W 118°09'0 0.1
2014-Nov-21 15:33N 33°45' W 118°09'3 3.2
2014-Nov-21 14:34N 33°44' W 118°12'0 0.4
2014-Nov-21 13:33N 33°45' W 118°12'0 0.0
2014-Nov-21 12:33N 33°45' W 118°12'2 2.2
2014-Nov-21 11:34N 33°45' W 118°10'2 1.8
2014-Nov-21 10:33N 33°44' W 118°12'1 0.9
2014-Nov-21 09:33N 33°45' W 118°12'1 1.4
2014-Nov-21 08:33N 33°45' W 118°11'1 1.4
2014-Nov-21 07:31N 33°44' W 118°12'3 3.4
2014-Nov-21 06:33N 33°44' W 118°08'0 0.0
2014-Nov-21 05:26N 33°44' W 118°08'1 1.4
2014-Nov-21 04:29N 33°45' W 118°10'1 1.1
2014-Nov-21 03:34N 33°46' W 118°11'2 1.5
2014-Nov-21 02:33N 33°45' W 118°12'0 0.0
2014-Nov-21 01:22N 33°45' W 118°12'0 0.0
2014-Nov-20 22:15N 33°45' W 118°12'0 0.0
2014-Nov-20 21:33N 33°45' W 118°12'0 0.0
2014-Nov-20 20:30N 33°45' W 118°12'3 3.4
2014-Nov-20 19:33N 33°44' W 118°08'3 3.2
2014-Nov-20 18:34N 33°44' W 118°12'1 0.6
2014-Nov-20 17:33N 33°45' W 118°12'2 1.9
2014-Nov-20 16:23N 33°45' W 118°10'1 0.7
2014-Nov-20 15:33N 33°45' W 118°10'2 2.1
2014-Nov-20 14:30N 33°44' W 118°12'0 0.3
2014-Nov-20 13:10N 33°45' W 118°12'0 0.0
2014-Nov-20 12:33N 33°45' W 118°12'2 2.3
2014-Nov-20 11:33N 33°45' W 118°10'2 2.4
2014-Nov-20 10:34N 33°44' W 118°12'0 0.2
2014-Nov-20 09:24N 33°45' W 118°12'2 1.7
2014-Nov-20 08:05N 33°45' W 118°10'1 1.1
2014-Nov-20 07:33N 33°45' W 118°10'2 2.2
2014-Nov-20 06:33N 33°45' W 118°12'2 1.5
2014-Nov-20 05:30N 33°46' W 118°11'1 1.1
2014-Nov-20 04:33N 33°45' W 118°10'1 1.0
2014-Nov-20 03:11N 33°44' W 118°08'3 5.2
2014-Nov-20 02:33N 33°45' W 118°12'0 0.0
2014-Nov-20 01:33N 33°45' W 118°12'0 0.0
2014-Nov-20 00:33N 33°45' W 118°12'1 1.3
2014-Nov-19 23:33N 33°45' W 118°11'1 0.9
2014-Nov-19 22:33N 33°45' W 118°10'2 2.2
2014-Nov-19 21:33N 33°45' W 118°12'0 0.0
2014-Nov-19 20:33N 33°45' W 118°12'2 2.3
2014-Nov-19 19:34N 33°45' W 118°10'2 2.2
2014-Nov-19 18:34N 33°44' W 118°12'1 1.3
2014-Nov-19 17:33N 33°44' W 118°10'1 0.9
2014-Nov-19 16:29N 33°45' W 118°10'2 1.1
2014-Nov-19 14:34N 33°45' W 118°12'0 0.0
2014-Nov-19 13:15N 33°45' W 118°12'2 2.0
2014-Nov-19 12:09N 33°45' W 118°10'0 0.0
2014-Nov-19 11:17N 33°45' W 118°10'0 0.0
2014-Nov-19 10:19N 33°45' W 118°10'1 1.4
2014-Nov-19 09:33N 33°44' W 118°08'1 1.1
2014-Nov-19 08:34N 33°45' W 118°10'0 0.1
2014-Nov-19 07:34N 33°45' W 118°10'0 0.0
2014-Nov-19 06:33N 33°45' W 118°10'1 0.6
2014-Nov-19 05:34N 33°45' W 118°10'2 2.3
2014-Nov-19 04:34N 33°45' W 118°12'0 0.0
2014-Nov-19 03:33N 33°45' W 118°12'2 2.2
2014-Nov-19 02:34N 33°45' W 118°10'1 0.6
2014-Nov-19 01:34N 33°45' W 118°10'1 1.4
2014-Nov-19 00:33N 33°44' W 118°11'1 1.0
2014-Nov-18 23:33N 33°45' W 118°10'1 0.9
2014-Nov-18 22:33N 33°45' W 118°09'1 1.3
2014-Nov-18 21:33N 33°45' W 118°10'2 1.5
2014-Nov-18 20:34N 33°45' W 118°12'0 0.0
2014-Nov-18 19:33N 33°45' W 118°12'3 3.2
2014-Nov-18 18:34N 33°44' W 118°08'2 2.3
2014-Nov-18 17:33N 33°46' W 118°11'1 1.2
2014-Nov-18 16:33N 33°45' W 118°10'2 2.0
2014-Nov-18 15:33N 33°45' W 118°12'0 0.0
2014-Nov-18 14:33N 33°45' W 118°12'0 0.0
2014-Nov-18 13:34N 33°45' W 118°12'0 0.5
2014-Nov-18 12:33N 33°44' W 118°12'2 2.2
2014-Nov-18 11:33N 33°45' W 118°10'0 0.0
2014-Nov-18 10:33N 33°45' W 118°10'1 1.1
2014-Nov-18 09:34N 33°44' W 118°08'1 1.0
2014-Nov-18 08:32N 33°45' W 118°10'0 0.0
2014-Nov-18 07:31N 33°45' W 118°10'1 0.6
2014-Nov-18 06:34N 33°45' W 118°10'0 0.3
2014-Nov-18 05:33N 33°45' W 118°10'2 2.0
2014-Nov-18 04:33N 33°44' W 118°12'1 0.8
2014-Nov-18 03:34N 33°45' W 118°12'0 0.0
2014-Nov-18 02:33N 33°45' W 118°12'2 1.1
2014-Nov-18 00:33N 33°45' W 118°10'2 2.2
2014-Nov-17 23:33N 33°45' W 118°12'0 0.0
2014-Nov-17 22:28N 33°45' W 118°12'0 0.0
2014-Nov-17 21:33N 33°45' W 118°12'2 1.8
2014-Nov-17 20:20N 33°45' W 118°10'2 1.1
2014-Nov-17 18:17N 33°45' W 118°12'0 0.1
2014-Nov-17 15:17N 33°45' W 118°12'0 0.0
2014-Nov-16 18:26N 33°45' W 118°12'0 0.0
2014-Nov-16 17:27N 33°45' W 118°12'0 0.0
2014-Nov-16 16:20N 33°45' W 118°12'0 0.0
2014-Nov-16 12:07N 33°45' W 118°12'0 0.0
2014-Nov-16 11:18N 33°45' W 118°12'2 2.1
2014-Nov-16 10:33N 33°44' W 118°10'2 1.5
2014-Nov-16 09:33N 33°45' W 118°12'0 0.0
2014-Nov-16 08:34N 33°45' W 118°12'0 0.0
2014-Nov-16 07:33N 33°45' W 118°12'0 0.0
2014-Nov-16 06:33N 33°45' W 118°12'0 0.0
2014-Nov-16 05:33N 33°45' W 118°12'0 0.0
2014-Nov-16 02:22N 33°45' W 118°12'0 0.0
2014-Nov-16 01:33N 33°45' W 118°12'0 0.0
2014-Nov-16 00:33N 33°45' W 118°12'0 0.0
2014-Nov-15 23:33N 33°45' W 118°12'0 0.0
2014-Nov-15 19:34N 33°45' W 118°12'2 1.6
2014-Nov-15 18:32N 33°46' W 118°11'1 1.0
2014-Nov-15 17:33N 33°45' W 118°10'1 0.9
2014-Nov-15 16:33N 33°45' W 118°10'1 1.1
2014-Nov-15 15:11N 33°45' W 118°12'0 0.0
2014-Nov-15 14:08N 33°45' W 118°12'2 0.8
2014-Nov-15 11:23N 33°45' W 118°10'1 1.2
2014-Nov-15 10:31N 33°45' W 118°08'0 0.2
2014-Nov-15 09:34N 33°44' W 118°08'1 1.1
2014-Nov-15 08:33N 33°45' W 118°10'0 0.5
2014-Nov-15 07:33N 33°45' W 118°10'0 0.0
2014-Nov-15 06:33N 33°45' W 118°10'1 0.6
2014-Nov-15 05:34N 33°45' W 118°10'0 0.2
2014-Nov-15 04:33N 33°45' W 118°10'2 1.0
2014-Nov-15 02:31N 33°45' W 118°12'0 0.0
2014-Nov-15 01:33N 33°45' W 118°12'0 0.0
2014-Nov-15 00:34N 33°45' W 118°12'1 0.7
2014-Nov-14 23:33N 33°44' W 118°12'3 3.0
2014-Nov-14 22:33N 33°44' W 118°08'  

Dump ship's entire track history